sensor_id;sensor_type;location;lat;lon;timestamp;P1;durP1;ratioP1;P2;durP2;ratioP2
60979;SDS011;46851;49.160;8.980;2022-11-04T00:01:42;1.58;;;1.08;;
60979;SDS011;46851;49.160;8.980;2022-11-04T00:04:09;2.30;;;1.00;;
60979;SDS011;46851;49.160;8.980;2022-11-04T00:06:36;3.10;;;0.90;;
60979;SDS011;46851;49.160;8.980;2022-11-04T00:09:03;7.78;;;1.45;;
60979;SDS011;46851;49.160;8.980;2022-11-04T00:11:29;1.70;;;1.10;;
60979;SDS011;46851;49.160;8.980;2022-11-04T00:14:14;2.00;;;1.27;;
60979;SDS011;46851;49.160;8.980;2022-11-04T00:16:40;1.17;;;1.00;;
60979;SDS011;46851;49.160;8.980;2022-11-04T00:19:25;2.05;;;1.20;;
60979;SDS011;46851;49.160;8.980;2022-11-04T00:21:51;3.03;;;1.30;;
60979;SDS011;46851;49.160;8.980;2022-11-04T00:24:36;2.65;;;1.15;;
60979;SDS011;46851;49.160;8.980;2022-11-04T00:27:21;4.65;;;1.33;;
60979;SDS011;46851;49.160;8.980;2022-11-04T00:30:07;3.00;;;1.40;;
60979;SDS011;46851;49.160;8.980;2022-11-04T00:32:34;1.48;;;1.23;;
60979;SDS011;46851;49.160;8.980;2022-11-04T00:35:18;2.15;;;1.15;;
60979;SDS011;46851;49.160;8.980;2022-11-04T00:37:45;1.70;;;1.10;;
60979;SDS011;46851;49.160;8.980;2022-11-04T00:40:12;2.67;;;1.20;;
60979;SDS011;46851;49.160;8.980;2022-11-04T00:42:38;1.70;;;1.08;;
60979;SDS011;46851;49.160;8.980;2022-11-04T00:45:05;1.63;;;1.20;;
60979;SDS011;46851;49.160;8.980;2022-11-04T00:47:31;1.15;;;1.05;;
60979;SDS011;46851;49.160;8.980;2022-11-04T00:49:57;1.90;;;1.27;;
60979;SDS011;46851;49.160;8.980;2022-11-04T00:52:23;4.50;;;1.33;;
60979;SDS011;46851;49.160;8.980;2022-11-04T00:54:49;2.22;;;1.33;;
60979;SDS011;46851;49.160;8.980;2022-11-04T01:00:21;1.90;;;1.10;;
60979;SDS011;46851;49.160;8.980;2022-11-04T01:02:47;2.35;;;1.17;;
60979;SDS011;46851;49.160;8.980;2022-11-04T01:05:13;2.58;;;1.17;;
60979;SDS011;46851;49.160;8.980;2022-11-04T01:07:40;3.08;;;1.38;;
60979;SDS011;46851;49.160;8.980;2022-11-04T01:10:06;1.75;;;1.40;;
60979;SDS011;46851;49.160;8.980;2022-11-04T01:12:32;2.33;;;1.30;;
60979;SDS011;46851;49.160;8.980;2022-11-04T01:14:58;6.40;;;1.67;;
60979;SDS011;46851;49.160;8.980;2022-11-04T01:17:24;2.92;;;1.60;;
60979;SDS011;46851;49.160;8.980;2022-11-04T01:19:51;3.78;;;1.60;;
60979;SDS011;46851;49.160;8.980;2022-11-04T01:22:17;1.98;;;1.30;;
60979;SDS011;46851;49.160;8.980;2022-11-04T01:24:43;3.13;;;1.52;;
60979;SDS011;46851;49.160;8.980;2022-11-04T01:27:09;1.80;;;1.40;;
60979;SDS011;46851;49.160;8.980;2022-11-04T01:29:35;5.88;;;1.90;;
60979;SDS011;46851;49.160;8.980;2022-11-04T01:32:01;3.75;;;1.60;;
60979;SDS011;46851;49.160;8.980;2022-11-04T01:34:27;2.15;;;1.55;;
60979;SDS011;46851;49.160;8.980;2022-11-04T01:36:53;4.05;;;2.10;;
60979;SDS011;46851;49.160;8.980;2022-11-04T01:39:19;2.33;;;1.30;;
60979;SDS011;46851;49.160;8.980;2022-11-04T01:41:45;3.10;;;1.45;;
60979;SDS011;46851;49.160;8.980;2022-11-04T01:46:56;3.75;;;1.67;;
60979;SDS011;46851;49.160;8.980;2022-11-04T01:49:29;2.70;;;1.77;;
60979;SDS011;46851;49.160;8.980;2022-11-04T01:51:57;3.47;;;1.52;;
60979;SDS011;46851;49.160;8.980;2022-11-04T01:54:25;2.53;;;1.40;;
60979;SDS011;46851;49.160;8.980;2022-11-04T01:56:51;2.10;;;1.40;;
60979;SDS011;46851;49.160;8.980;2022-11-04T01:59:23;2.65;;;1.30;;
60979;SDS011;46851;49.160;8.980;2022-11-04T02:01:50;6.03;;;1.45;;
60979;SDS011;46851;49.160;8.980;2022-11-04T02:04:16;2.95;;;1.10;;
60979;SDS011;46851;49.160;8.980;2022-11-04T02:07:02;5.32;;;1.77;;
60979;SDS011;46851;49.160;8.980;2022-11-04T02:09:30;2.75;;;1.20;;
60979;SDS011;46851;49.160;8.980;2022-11-04T02:11:57;2.75;;;1.30;;
60979;SDS011;46851;49.160;8.980;2022-11-04T02:14:41;2.20;;;1.30;;
60979;SDS011;46851;49.160;8.980;2022-11-04T02:27:46;1.83;;;1.30;;
60979;SDS011;46851;49.160;8.980;2022-11-04T02:30:17;2.65;;;1.45;;
60979;SDS011;46851;49.160;8.980;2022-11-04T02:33:02;2.60;;;1.23;;
60979;SDS011;46851;49.160;8.980;2022-11-04T02:40:46;1.42;;;1.20;;
60979;SDS011;46851;49.160;8.980;2022-11-04T02:45:42;5.63;;;1.20;;
60979;SDS011;46851;49.160;8.980;2022-11-04T02:48:10;5.10;;;1.13;;
60979;SDS011;46851;49.160;8.980;2022-11-04T02:55:45;3.60;;;1.40;;
60979;SDS011;46851;49.160;8.980;2022-11-04T02:58:23;3.38;;;1.35;;
60979;SDS011;46851;49.160;8.980;2022-11-04T03:00:50;3.05;;;1.40;;
60979;SDS011;46851;49.160;8.980;2022-11-04T03:03:19;2.78;;;1.40;;
60979;SDS011;46851;49.160;8.980;2022-11-04T03:05:47;2.40;;;1.10;;
60979;SDS011;46851;49.160;8.980;2022-11-04T03:08:16;2.05;;;1.58;;
60979;SDS011;46851;49.160;8.980;2022-11-04T03:10:45;5.10;;;1.08;;
60979;SDS011;46851;49.160;8.980;2022-11-04T03:13:13;3.45;;;1.17;;
60979;SDS011;46851;49.160;8.980;2022-11-04T03:15:45;3.10;;;1.67;;
60979;SDS011;46851;49.160;8.980;2022-11-04T03:20:41;2.08;;;1.20;;
60979;SDS011;46851;49.160;8.980;2022-11-04T03:23:08;6.55;;;1.45;;
60979;SDS011;46851;49.160;8.980;2022-11-04T03:25:39;5.55;;;1.70;;
60979;SDS011;46851;49.160;8.980;2022-11-04T03:30:43;2.78;;;0.98;;
60979;SDS011;46851;49.160;8.980;2022-11-04T03:35:42;4.57;;;1.20;;
60979;SDS011;46851;49.160;8.980;2022-11-04T03:38:08;2.67;;;1.35;;
60979;SDS011;46851;49.160;8.980;2022-11-04T03:40:34;8.65;;;1.40;;
60979;SDS011;46851;49.160;8.980;2022-11-04T03:43:08;3.97;;;1.10;;
60979;SDS011;46851;49.160;8.980;2022-11-04T03:45:35;13.45;;;2.25;;
60979;SDS011;46851;49.160;8.980;2022-11-04T03:48:02;6.90;;;1.20;;
60979;SDS011;46851;49.160;8.980;2022-11-04T03:50:29;3.63;;;1.10;;
60979;SDS011;46851;49.160;8.980;2022-11-04T03:52:55;3.45;;;1.10;;
60979;SDS011;46851;49.160;8.980;2022-11-04T03:55:55;5.15;;;1.60;;
60979;SDS011;46851;49.160;8.980;2022-11-04T03:58:31;3.20;;;1.00;;
60979;SDS011;46851;49.160;8.980;2022-11-04T04:01:15;4.78;;;1.42;;
60979;SDS011;46851;49.160;8.980;2022-11-04T04:03:45;4.28;;;1.00;;
60979;SDS011;46851;49.160;8.980;2022-11-04T04:06:17;4.80;;;1.65;;
60979;SDS011;46851;49.160;8.980;2022-11-04T04:11:18;7.22;;;1.30;;
60979;SDS011;46851;49.160;8.980;2022-11-04T04:16:19;4.03;;;1.52;;
60979;SDS011;46851;49.160;8.980;2022-11-04T04:18:50;4.90;;;1.40;;
60979;SDS011;46851;49.160;8.980;2022-11-04T04:21:19;5.50;;;1.17;;
60979;SDS011;46851;49.160;8.980;2022-11-04T04:23:46;5.32;;;1.23;;
60979;SDS011;46851;49.160;8.980;2022-11-04T04:26:33;7.80;;;1.60;;
60979;SDS011;46851;49.160;8.980;2022-11-04T04:29:18;6.68;;;1.40;;
60979;SDS011;46851;49.160;8.980;2022-11-04T04:31:45;6.10;;;1.38;;
60979;SDS011;46851;49.160;8.980;2022-11-04T04:34:35;4.38;;;1.20;;
60979;SDS011;46851;49.160;8.980;2022-11-04T04:39:30;4.30;;;1.40;;
60979;SDS011;46851;49.160;8.980;2022-11-04T04:42:16;3.72;;;1.13;;
60979;SDS011;46851;49.160;8.980;2022-11-04T04:45:02;5.78;;;1.98;;
60979;SDS011;46851;49.160;8.980;2022-11-04T04:47:30;4.75;;;1.63;;
60979;SDS011;46851;49.160;8.980;2022-11-04T04:49:58;7.65;;;1.50;;
60979;SDS011;46851;49.160;8.980;2022-11-04T04:52:26;8.20;;;1.30;;
60979;SDS011;46851;49.160;8.980;2022-11-04T04:54:52;4.28;;;1.17;;
60979;SDS011;46851;49.160;8.980;2022-11-04T04:57:18;4.35;;;1.55;;
60979;SDS011;46851;49.160;8.980;2022-11-04T04:59:44;4.38;;;1.30;;
60979;SDS011;46851;49.160;8.980;2022-11-04T05:02:10;7.28;;;1.90;;
60979;SDS011;46851;49.160;8.980;2022-11-04T05:04:36;8.20;;;1.30;;
60979;SDS011;46851;49.160;8.980;2022-11-04T05:07:02;6.13;;;1.70;;
60979;SDS011;46851;49.160;8.980;2022-11-04T05:09:28;6.45;;;1.58;;
60979;SDS011;46851;49.160;8.980;2022-11-04T05:11:54;10.93;;;1.55;;
60979;SDS011;46851;49.160;8.980;2022-11-04T05:14:20;6.03;;;1.75;;
60979;SDS011;46851;49.160;8.980;2022-11-04T05:16:46;6.85;;;2.05;;
60979;SDS011;46851;49.160;8.980;2022-11-04T05:19:12;8.25;;;2.20;;
60979;SDS011;46851;49.160;8.980;2022-11-04T05:21:38;5.60;;;2.10;;
60979;SDS011;46851;49.160;8.980;2022-11-04T05:24:04;6.03;;;1.95;;
60979;SDS011;46851;49.160;8.980;2022-11-04T05:26:30;5.88;;;2.28;;
60979;SDS011;46851;49.160;8.980;2022-11-04T05:28:56;10.00;;;1.90;;
60979;SDS011;46851;49.160;8.980;2022-11-04T05:31:22;6.18;;;2.00;;
60979;SDS011;46851;49.160;8.980;2022-11-04T05:33:48;9.43;;;2.22;;
60979;SDS011;46851;49.160;8.980;2022-11-04T05:36:14;8.95;;;2.20;;
60979;SDS011;46851;49.160;8.980;2022-11-04T05:38:41;9.43;;;2.00;;
60979;SDS011;46851;49.160;8.980;2022-11-04T05:41:08;6.40;;;1.58;;
60979;SDS011;46851;49.160;8.980;2022-11-04T05:43:34;8.85;;;2.80;;
60979;SDS011;46851;49.160;8.980;2022-11-04T05:46:00;6.15;;;1.67;;
60979;SDS011;46851;49.160;8.980;2022-11-04T05:48:27;7.15;;;3.60;;
60979;SDS011;46851;49.160;8.980;2022-11-04T05:50:53;8.75;;;1.90;;
60979;SDS011;46851;49.160;8.980;2022-11-04T05:53:19;11.77;;;2.03;;
60979;SDS011;46851;49.160;8.980;2022-11-04T05:55:45;8.43;;;2.10;;
60979;SDS011;46851;49.160;8.980;2022-11-04T05:58:11;5.57;;;1.70;;
60979;SDS011;46851;49.160;8.980;2022-11-04T06:00:37;7.15;;;1.75;;
60979;SDS011;46851;49.160;8.980;2022-11-04T06:03:03;8.13;;;2.00;;
60979;SDS011;46851;49.160;8.980;2022-11-04T06:05:29;9.10;;;2.38;;
60979;SDS011;46851;49.160;8.980;2022-11-04T06:07:56;3.53;;;1.73;;
60979;SDS011;46851;49.160;8.980;2022-11-04T06:10:22;5.43;;;1.80;;
60979;SDS011;46851;49.160;8.980;2022-11-04T06:12:48;11.23;;;2.97;;
60979;SDS011;46851;49.160;8.980;2022-11-04T06:15:14;6.25;;;2.33;;
60979;SDS011;46851;49.160;8.980;2022-11-04T06:17:40;10.65;;;1.90;;
60979;SDS011;46851;49.160;8.980;2022-11-04T06:20:06;10.30;;;3.22;;
60979;SDS011;46851;49.160;8.980;2022-11-04T06:22:32;8.32;;;3.75;;
60979;SDS011;46851;49.160;8.980;2022-11-04T06:24:58;5.28;;;3.85;;
60979;SDS011;46851;49.160;8.980;2022-11-04T06:27:24;13.57;;;5.00;;
60979;SDS011;46851;49.160;8.980;2022-11-04T06:29:50;16.08;;;6.20;;
60979;SDS011;46851;49.160;8.980;2022-11-04T06:32:18;12.45;;;5.40;;
60979;SDS011;46851;49.160;8.980;2022-11-04T06:34:44;9.80;;;5.00;;
60979;SDS011;46851;49.160;8.980;2022-11-04T06:37:10;7.97;;;3.20;;
60979;SDS011;46851;49.160;8.980;2022-11-04T06:39:37;9.13;;;2.70;;
60979;SDS011;46851;49.160;8.980;2022-11-04T06:42:03;17.40;;;3.35;;
60979;SDS011;46851;49.160;8.980;2022-11-04T06:44:29;10.43;;;3.05;;
60979;SDS011;46851;49.160;8.980;2022-11-04T06:46:55;9.15;;;2.65;;
60979;SDS011;46851;49.160;8.980;2022-11-04T06:49:21;6.78;;;4.47;;
60979;SDS011;46851;49.160;8.980;2022-11-04T06:51:47;8.75;;;4.50;;
60979;SDS011;46851;49.160;8.980;2022-11-04T06:54:14;14.13;;;5.38;;
60979;SDS011;46851;49.160;8.980;2022-11-04T06:56:40;7.57;;;3.13;;
60979;SDS011;46851;49.160;8.980;2022-11-04T06:59:06;5.82;;;2.42;;
60979;SDS011;46851;49.160;8.980;2022-11-04T07:01:34;11.10;;;4.45;;
60979;SDS011;46851;49.160;8.980;2022-11-04T07:04:01;15.57;;;4.78;;
60979;SDS011;46851;49.160;8.980;2022-11-04T07:06:29;21.67;;;6.15;;
60979;SDS011;46851;49.160;8.980;2022-11-04T07:08:56;28.60;;;7.72;;
60979;SDS011;46851;49.160;8.980;2022-11-04T07:11:23;35.28;;;8.88;;
60979;SDS011;46851;49.160;8.980;2022-11-04T07:13:50;24.02;;;7.32;;
60979;SDS011;46851;49.160;8.980;2022-11-04T07:16:16;27.65;;;8.48;;
60979;SDS011;46851;49.160;8.980;2022-11-04T07:18:42;39.75;;;10.10;;
60979;SDS011;46851;49.160;8.980;2022-11-04T07:21:08;39.50;;;11.32;;
60979;SDS011;46851;49.160;8.980;2022-11-04T07:23:35;43.75;;;13.57;;
60979;SDS011;46851;49.160;8.980;2022-11-04T07:26:01;19.52;;;9.38;;
60979;SDS011;46851;49.160;8.980;2022-11-04T07:28:28;24.75;;;6.72;;
60979;SDS011;46851;49.160;8.980;2022-11-04T07:30:58;25.60;;;4.30;;
60979;SDS011;46851;49.160;8.980;2022-11-04T07:33:24;19.70;;;3.25;;
60979;SDS011;46851;49.160;8.980;2022-11-04T07:35:51;9.25;;;2.90;;
60979;SDS011;46851;49.160;8.980;2022-11-04T07:38:17;7.57;;;2.70;;
60979;SDS011;46851;49.160;8.980;2022-11-04T07:40:43;10.38;;;4.78;;
60979;SDS011;46851;49.160;8.980;2022-11-04T07:43:09;13.15;;;3.20;;
60979;SDS011;46851;49.160;8.980;2022-11-04T07:45:35;12.18;;;2.53;;
60979;SDS011;46851;49.160;8.980;2022-11-04T07:48:01;10.90;;;2.08;;
60979;SDS011;46851;49.160;8.980;2022-11-04T07:50:27;22.80;;;8.20;;
60979;SDS011;46851;49.160;8.980;2022-11-04T07:52:53;15.10;;;5.18;;
60979;SDS011;46851;49.160;8.980;2022-11-04T07:55:19;20.30;;;5.63;;
60979;SDS011;46851;49.160;8.980;2022-11-04T07:57:45;23.48;;;9.73;;
60979;SDS011;46851;49.160;8.980;2022-11-04T08:00:13;28.27;;;12.48;;
60979;SDS011;46851;49.160;8.980;2022-11-04T08:02:40;26.83;;;6.28;;
60979;SDS011;46851;49.160;8.980;2022-11-04T08:05:08;28.90;;;6.40;;
60979;SDS011;46851;49.160;8.980;2022-11-04T08:07:34;25.70;;;12.10;;
60979;SDS011;46851;49.160;8.980;2022-11-04T08:10:01;26.15;;;10.27;;
60979;SDS011;46851;49.160;8.980;2022-11-04T08:12:27;22.90;;;7.60;;
60979;SDS011;46851;49.160;8.980;2022-11-04T08:14:53;22.75;;;4.80;;
60979;SDS011;46851;49.160;8.980;2022-11-04T08:17:19;16.10;;;3.92;;
60979;SDS011;46851;49.160;8.980;2022-11-04T08:19:45;11.18;;;2.90;;
60979;SDS011;46851;49.160;8.980;2022-11-04T08:22:11;14.00;;;2.85;;
60979;SDS011;46851;49.160;8.980;2022-11-04T08:24:37;8.30;;;1.73;;
60979;SDS011;46851;49.160;8.980;2022-11-04T08:27:04;3.20;;;1.75;;
60979;SDS011;46851;49.160;8.980;2022-11-04T08:29:34;10.00;;;1.83;;
60979;SDS011;46851;49.160;8.980;2022-11-04T08:32:00;8.73;;;2.00;;
60979;SDS011;46851;49.160;8.980;2022-11-04T08:34:26;4.85;;;1.85;;
60979;SDS011;46851;49.160;8.980;2022-11-04T08:36:52;12.13;;;2.40;;
60979;SDS011;46851;49.160;8.980;2022-11-04T08:39:21;5.53;;;2.10;;
60979;SDS011;46851;49.160;8.980;2022-11-04T08:41:48;5.85;;;1.45;;
60979;SDS011;46851;49.160;8.980;2022-11-04T08:44:15;5.35;;;1.50;;
60979;SDS011;46851;49.160;8.980;2022-11-04T08:46:41;19.52;;;2.28;;
60979;SDS011;46851;49.160;8.980;2022-11-04T08:49:08;7.05;;;1.40;;
60979;SDS011;46851;49.160;8.980;2022-11-04T08:51:35;4.78;;;1.58;;
60979;SDS011;46851;49.160;8.980;2022-11-04T08:54:02;16.92;;;2.03;;
60979;SDS011;46851;49.160;8.980;2022-11-04T08:56:30;10.68;;;1.95;;
60979;SDS011;46851;49.160;8.980;2022-11-04T08:58:56;6.00;;;1.92;;
60979;SDS011;46851;49.160;8.980;2022-11-04T09:01:23;3.28;;;1.50;;
60979;SDS011;46851;49.160;8.980;2022-11-04T09:03:50;6.97;;;1.67;;
60979;SDS011;46851;49.160;8.980;2022-11-04T09:06:18;5.72;;;1.40;;
60979;SDS011;46851;49.160;8.980;2022-11-04T09:08:44;5.88;;;2.30;;
60979;SDS011;46851;49.160;8.980;2022-11-04T09:11:11;26.10;;;4.80;;
60979;SDS011;46851;49.160;8.980;2022-11-04T09:13:38;31.23;;;4.43;;
60979;SDS011;46851;49.160;8.980;2022-11-04T09:16:04;9.68;;;2.05;;
60979;SDS011;46851;49.160;8.980;2022-11-04T09:18:30;3.58;;;1.50;;
60979;SDS011;46851;49.160;8.980;2022-11-04T09:21:00;7.47;;;1.60;;
60979;SDS011;46851;49.160;8.980;2022-11-04T09:25:52;8.77;;;1.70;;
60979;SDS011;46851;49.160;8.980;2022-11-04T09:28:20;5.20;;;1.55;;
60979;SDS011;46851;49.160;8.980;2022-11-04T09:30:46;8.00;;;1.63;;
60979;SDS011;46851;49.160;8.980;2022-11-04T09:33:12;3.83;;;1.30;;
60979;SDS011;46851;49.160;8.980;2022-11-04T09:35:38;4.55;;;1.02;;
60979;SDS011;46851;49.160;8.980;2022-11-04T09:38:03;9.10;;;1.63;;
60979;SDS011;46851;49.160;8.980;2022-11-04T09:40:31;9.32;;;1.60;;
60979;SDS011;46851;49.160;8.980;2022-11-04T09:45:30;9.23;;;1.30;;
60979;SDS011;46851;49.160;8.980;2022-11-04T09:47:58;7.82;;;2.60;;
60979;SDS011;46851;49.160;8.980;2022-11-04T09:50:26;9.05;;;1.70;;
60979;SDS011;46851;49.160;8.980;2022-11-04T09:52:57;5.88;;;1.40;;
60979;SDS011;46851;49.160;8.980;2022-11-04T09:58:36;11.98;;;1.70;;
60979;SDS011;46851;49.160;8.980;2022-11-04T10:03:45;10.52;;;1.67;;
60979;SDS011;46851;49.160;8.980;2022-11-04T10:06:19;9.52;;;1.33;;
60979;SDS011;46851;49.160;8.980;2022-11-04T10:12:08;5.70;;;1.40;;
60979;SDS011;46851;49.160;8.980;2022-11-04T10:27:38;7.50;;;1.08;;
60979;SDS011;46851;49.160;8.980;2022-11-04T10:30:13;15.10;;;1.60;;
60979;SDS011;46851;49.160;8.980;2022-11-04T10:32:46;8.43;;;1.48;;
60979;SDS011;46851;49.160;8.980;2022-11-04T10:38:00;6.60;;;1.10;;
60979;SDS011;46851;49.160;8.980;2022-11-04T10:40:34;3.15;;;0.85;;
60979;SDS011;46851;49.160;8.980;2022-11-04T10:43:01;5.30;;;1.50;;
60979;SDS011;46851;49.160;8.980;2022-11-04T10:45:32;3.15;;;1.10;;
60979;SDS011;46851;49.160;8.980;2022-11-04T10:48:02;10.27;;;1.88;;
60979;SDS011;46851;49.160;8.980;2022-11-04T10:50:35;5.07;;;1.02;;
60979;SDS011;46851;49.160;8.980;2022-11-04T10:53:10;20.60;;;2.35;;
60979;SDS011;46851;49.160;8.980;2022-11-04T10:58:24;7.60;;;1.75;;
60979;SDS011;46851;49.160;8.980;2022-11-04T11:00:52;4.80;;;1.63;;
60979;SDS011;46851;49.160;8.980;2022-11-04T11:03:26;5.63;;;1.55;;
60979;SDS011;46851;49.160;8.980;2022-11-04T11:05:52;5.10;;;1.48;;
60979;SDS011;46851;49.160;8.980;2022-11-04T11:08:30;4.25;;;1.40;;
60979;SDS011;46851;49.160;8.980;2022-11-04T11:10:56;3.30;;;1.20;;
60979;SDS011;46851;49.160;8.980;2022-11-04T11:13:23;5.93;;;1.85;;
60979;SDS011;46851;49.160;8.980;2022-11-04T11:15:50;3.88;;;1.77;;
60979;SDS011;46851;49.160;8.980;2022-11-04T11:18:28;7.40;;;1.50;;
60979;SDS011;46851;49.160;8.980;2022-11-04T11:25:59;10.03;;;4.70;;
60979;SDS011;46851;49.160;8.980;2022-11-04T11:28:25;5.72;;;3.22;;
60979;SDS011;46851;49.160;8.980;2022-11-04T11:30:55;6.25;;;3.05;;
60979;SDS011;46851;49.160;8.980;2022-11-04T11:33:23;8.40;;;3.05;;
60979;SDS011;46851;49.160;8.980;2022-11-04T11:35:52;4.15;;;0.93;;
60979;SDS011;46851;49.160;8.980;2022-11-04T11:38:23;8.82;;;1.40;;
60979;SDS011;46851;49.160;8.980;2022-11-04T11:40:51;2.55;;;1.00;;
60979;SDS011;46851;49.160;8.980;2022-11-04T11:43:29;8.27;;;1.40;;
60979;SDS011;46851;49.160;8.980;2022-11-04T11:45:56;5.93;;;1.20;;
60979;SDS011;46851;49.160;8.980;2022-11-04T11:48:41;2.67;;;1.35;;
60979;SDS011;46851;49.160;8.980;2022-11-04T11:51:13;4.80;;;1.33;;
60979;SDS011;46851;49.160;8.980;2022-11-04T11:53:40;3.85;;;1.10;;
60979;SDS011;46851;49.160;8.980;2022-11-04T11:56:23;4.72;;;1.30;;
60979;SDS011;46851;49.160;8.980;2022-11-04T11:58:51;6.57;;;1.10;;
60979;SDS011;46851;49.160;8.980;2022-11-04T12:03:52;5.38;;;0.90;;
60979;SDS011;46851;49.160;8.980;2022-11-04T12:14:01;12.50;;;1.40;;
60979;SDS011;46851;49.160;8.980;2022-11-04T12:19:02;14.20;;;1.75;;
60979;SDS011;46851;49.160;8.980;2022-11-04T12:21:32;5.13;;;1.40;;
60979;SDS011;46851;49.160;8.980;2022-11-04T12:31:58;5.53;;;1.05;;
60979;SDS011;46851;49.160;8.980;2022-11-04T12:34:37;9.77;;;1.45;;
60979;SDS011;46851;49.160;8.980;2022-11-04T12:39:43;6.57;;;1.70;;
60979;SDS011;46851;49.160;8.980;2022-11-04T12:44:38;8.73;;;1.65;;
60979;SDS011;46851;49.160;8.980;2022-11-04T12:55:01;8.40;;;1.60;;
60979;SDS011;46851;49.160;8.980;2022-11-04T13:03:05;6.38;;;1.63;;
60979;SDS011;46851;49.160;8.980;2022-11-04T13:10:39;5.40;;;1.07;;
60979;SDS011;46851;49.160;8.980;2022-11-04T13:13:08;8.60;;;1.73;;
60979;SDS011;46851;49.160;8.980;2022-11-04T13:15:47;12.52;;;2.20;;
60979;SDS011;46851;49.160;8.980;2022-11-04T13:18:16;5.07;;;1.60;;
60979;SDS011;46851;49.160;8.980;2022-11-04T13:23:40;5.45;;;0.90;;
60979;SDS011;46851;49.160;8.980;2022-11-04T13:26:12;6.82;;;1.15;;
60979;SDS011;46851;49.160;8.980;2022-11-04T13:28:39;3.45;;;0.93;;
60979;SDS011;46851;49.160;8.980;2022-11-04T13:31:09;2.38;;;0.80;;
60979;SDS011;46851;49.160;8.980;2022-11-04T13:38:57;5.50;;;1.13;;
60979;SDS011;46851;49.160;8.980;2022-11-04T13:43:57;4.13;;;1.15;;
60979;SDS011;46851;49.160;8.980;2022-11-04T13:46:25;3.85;;;1.00;;
60979;SDS011;46851;49.160;8.980;2022-11-04T13:51:21;7.15;;;1.15;;
60979;SDS011;46851;49.160;8.980;2022-11-04T13:53:51;3.40;;;1.00;;
60979;SDS011;46851;49.160;8.980;2022-11-04T13:56:27;3.25;;;0.80;;
60979;SDS011;46851;49.160;8.980;2022-11-04T13:58:55;3.47;;;1.00;;
60979;SDS011;46851;49.160;8.980;2022-11-04T14:06:17;4.80;;;1.05;;
60979;SDS011;46851;49.160;8.980;2022-11-04T14:12:15;5.43;;;0.70;;
60979;SDS011;46851;49.160;8.980;2022-11-04T14:14:33;3.05;;;0.90;;
60979;SDS011;46851;49.160;8.980;2022-11-04T14:16:59;5.88;;;1.00;;
60979;SDS011;46851;49.160;8.980;2022-11-04T14:19:47;3.15;;;0.95;;
60979;SDS011;46851;49.160;8.980;2022-11-04T14:22:24;2.97;;;1.10;;
60979;SDS011;46851;49.160;8.980;2022-11-04T14:24:58;9.15;;;1.50;;
60979;SDS011;46851;49.160;8.980;2022-11-04T14:29:51;6.88;;;1.00;;
60979;SDS011;46851;49.160;8.980;2022-11-04T14:32:21;4.55;;;1.00;;
60979;SDS011;46851;49.160;8.980;2022-11-04T14:34:48;11.18;;;1.20;;
60979;SDS011;46851;49.160;8.980;2022-11-04T14:37:22;5.57;;;1.30;;
60979;SDS011;46851;49.160;8.980;2022-11-04T14:39:52;56.53;;;4.13;;
60979;SDS011;46851;49.160;8.980;2022-11-04T14:42:39;25.45;;;2.47;;
60979;SDS011;46851;49.160;8.980;2022-11-04T14:45:06;7.68;;;1.17;;
60979;SDS011;46851;49.160;8.980;2022-11-04T14:47:32;34.85;;;3.30;;
60979;SDS011;46851;49.160;8.980;2022-11-04T14:50:03;8.63;;;1.45;;
60979;SDS011;46851;49.160;8.980;2022-11-04T14:55:11;6.35;;;1.35;;
60979;SDS011;46851;49.160;8.980;2022-11-04T14:57:48;5.35;;;1.02;;
60979;SDS011;46851;49.160;8.980;2022-11-04T15:03:11;3.95;;;0.93;;
60979;SDS011;46851;49.160;8.980;2022-11-04T15:05:37;18.52;;;2.30;;
60979;SDS011;46851;49.160;8.980;2022-11-04T15:10:48;9.73;;;1.65;;
60979;SDS011;46851;49.160;8.980;2022-11-04T15:13:17;12.57;;;1.38;;
60979;SDS011;46851;49.160;8.980;2022-11-04T15:15:44;9.50;;;1.77;;
60979;SDS011;46851;49.160;8.980;2022-11-04T15:20:47;21.75;;;2.20;;
60979;SDS011;46851;49.160;8.980;2022-11-04T15:23:15;21.85;;;2.20;;
60979;SDS011;46851;49.160;8.980;2022-11-04T15:25:48;23.08;;;3.08;;
60979;SDS011;46851;49.160;8.980;2022-11-04T15:28:16;33.33;;;4.00;;
60979;SDS011;46851;49.160;8.980;2022-11-04T15:30:42;15.23;;;2.10;;
60979;SDS011;46851;49.160;8.980;2022-11-04T15:33:21;12.00;;;2.38;;
60979;SDS011;46851;49.160;8.980;2022-11-04T15:35:47;31.75;;;4.05;;
60979;SDS011;46851;49.160;8.980;2022-11-04T15:38:13;47.50;;;3.85;;
60979;SDS011;46851;49.160;8.980;2022-11-04T15:40:39;12.55;;;1.33;;
60979;SDS011;46851;49.160;8.980;2022-11-04T15:43:15;14.20;;;2.25;;
60979;SDS011;46851;49.160;8.980;2022-11-04T15:45:48;20.13;;;3.20;;
60979;SDS011;46851;49.160;8.980;2022-11-04T15:48:22;18.15;;;1.60;;
60979;SDS011;46851;49.160;8.980;2022-11-04T15:51:32;7.75;;;1.27;;
60979;SDS011;46851;49.160;8.980;2022-11-04T15:54:38;8.27;;;1.60;;
60979;SDS011;46851;49.160;8.980;2022-11-04T15:56:37;7.75;;;1.20;;
60979;SDS011;46851;49.160;8.980;2022-11-04T15:59:07;10.93;;;1.65;;
60979;SDS011;46851;49.160;8.980;2022-11-04T16:01:34;9.43;;;1.90;;
60979;SDS011;46851;49.160;8.980;2022-11-04T16:04:07;13.77;;;1.85;;
60979;SDS011;46851;49.160;8.980;2022-11-04T16:06:42;26.27;;;2.45;;
60979;SDS011;46851;49.160;8.980;2022-11-04T16:11:37;24.05;;;2.90;;
60979;SDS011;46851;49.160;8.980;2022-11-04T16:14:13;11.82;;;2.72;;
60979;SDS011;46851;49.160;8.980;2022-11-04T16:16:39;19.33;;;5.00;;
60979;SDS011;46851;49.160;8.980;2022-11-04T16:19:14;57.30;;;15.35;;
60979;SDS011;46851;49.160;8.980;2022-11-04T16:21:41;83.80;;;14.15;;
60979;SDS011;46851;49.160;8.980;2022-11-04T16:24:20;53.60;;;12.18;;
60979;SDS011;46851;49.160;8.980;2022-11-04T16:26:47;84.28;;;18.48;;
60979;SDS011;46851;49.160;8.980;2022-11-04T16:29:18;41.28;;;10.77;;
60979;SDS011;46851;49.160;8.980;2022-11-04T16:31:45;18.02;;;6.03;;
60979;SDS011;46851;49.160;8.980;2022-11-04T16:34:11;12.27;;;4.38;;
60979;SDS011;46851;49.160;8.980;2022-11-04T16:36:38;32.35;;;8.98;;
60979;SDS011;46851;49.160;8.980;2022-11-04T16:39:04;21.52;;;5.53;;
60979;SDS011;46851;49.160;8.980;2022-11-04T16:41:40;19.38;;;5.68;;
60979;SDS011;46851;49.160;8.980;2022-11-04T16:44:13;20.40;;;7.47;;
60979;SDS011;46851;49.160;8.980;2022-11-04T16:46:40;22.60;;;8.50;;
60979;SDS011;46851;49.160;8.980;2022-11-04T16:49:06;20.60;;;7.15;;
60979;SDS011;46851;49.160;8.980;2022-11-04T16:51:32;15.60;;;5.60;;
60979;SDS011;46851;49.160;8.980;2022-11-04T16:53:58;15.60;;;5.00;;
60979;SDS011;46851;49.160;8.980;2022-11-04T16:56:24;12.55;;;4.10;;
60979;SDS011;46851;49.160;8.980;2022-11-04T16:58:51;7.68;;;3.17;;
60979;SDS011;46851;49.160;8.980;2022-11-04T17:01:17;10.38;;;2.47;;
60979;SDS011;46851;49.160;8.980;2022-11-04T17:03:45;8.75;;;2.05;;
60979;SDS011;46851;49.160;8.980;2022-11-04T17:06:11;9.10;;;2.78;;
60979;SDS011;46851;49.160;8.980;2022-11-04T17:08:38;7.78;;;2.20;;
60979;SDS011;46851;49.160;8.980;2022-11-04T17:11:05;7.35;;;1.80;;
60979;SDS011;46851;49.160;8.980;2022-11-04T17:13:31;6.82;;;1.50;;
60979;SDS011;46851;49.160;8.980;2022-11-04T17:15:57;3.40;;;1.17;;
60979;SDS011;46851;49.160;8.980;2022-11-04T17:18:23;4.15;;;1.55;;
60979;SDS011;46851;49.160;8.980;2022-11-04T17:20:50;3.80;;;1.77;;
60979;SDS011;46851;49.160;8.980;2022-11-04T17:23:17;5.88;;;1.17;;
60979;SDS011;46851;49.160;8.980;2022-11-04T17:25:43;4.70;;;1.00;;
60979;SDS011;46851;49.160;8.980;2022-11-04T17:28:09;12.18;;;5.43;;
60979;SDS011;46851;49.160;8.980;2022-11-04T17:30:35;5.43;;;2.10;;
60979;SDS011;46851;49.160;8.980;2022-11-04T17:33:02;2.40;;;0.80;;
60979;SDS011;46851;49.160;8.980;2022-11-04T17:35:31;1.25;;;0.65;;
60979;SDS011;46851;49.160;8.980;2022-11-04T17:37:58;2.30;;;1.15;;